createdAt,value
2018-11-10T00:01:01.494Z,9.60
2018-11-10T00:03:29.957Z,9.50
2018-11-10T00:05:58.426Z,9.50
2018-11-10T00:08:26.978Z,9.50
2018-11-10T00:10:55.405Z,9.50
2018-11-10T00:13:23.889Z,9.50
2018-11-10T00:15:52.361Z,9.50
2018-11-10T00:18:20.865Z,9.50
2018-11-10T00:20:49.345Z,9.40
2018-11-10T00:23:17.813Z,9.40
2018-11-10T00:25:46.305Z,9.40
2018-11-10T00:28:15.469Z,9.40
2018-11-10T00:30:43.974Z,9.40
2018-11-10T00:33:12.450Z,9.40
2018-11-10T00:35:40.997Z,9.40
2018-11-10T00:38:09.493Z,9.40
2018-11-10T00:40:37.977Z,9.40
2018-11-10T00:43:06.505Z,9.40
2018-11-10T00:45:34.976Z,9.40
2018-11-10T00:48:03.505Z,9.40
2018-11-10T00:50:31.997Z,9.50
2018-11-10T00:53:00.517Z,9.50
2018-11-10T00:55:29.050Z,9.50
2018-11-10T00:57:57.521Z,9.50
2018-11-10T01:00:26.017Z,9.50
2018-11-10T01:02:54.673Z,9.50
2018-11-10T01:05:23.146Z,9.50
2018-11-10T01:07:51.628Z,9.50
2018-11-10T01:10:20.137Z,9.50
2018-11-10T01:12:48.625Z,9.50
2018-11-10T01:15:17.236Z,9.50
2018-11-10T01:17:45.793Z,9.40
2018-11-10T01:20:14.709Z,9.40
2018-11-10T01:22:43.218Z,9.50
2018-11-10T01:25:12.074Z,9.40
2018-11-10T01:27:40.536Z,9.40
2018-11-10T01:30:11.817Z,9.40
2018-11-10T01:32:40.389Z,9.40
2018-11-10T01:35:08.948Z,9.30
2018-11-10T01:37:37.953Z,9.30
2018-11-10T01:40:08.262Z,9.30
2018-11-10T01:42:36.729Z,9.30
2018-11-10T01:45:06.717Z,9.30
2018-11-10T01:47:35.184Z,9.30
2018-11-10T01:50:04.006Z,9.30
2018-11-10T01:52:32.477Z,9.20
2018-11-10T01:55:00.976Z,9.20
2018-11-10T01:57:29.442Z,9.20
2018-11-10T01:59:57.936Z,9.20
2018-11-10T02:02:26.401Z,9.20
2018-11-10T02:04:54.877Z,9.20
2018-11-10T02:07:23.397Z,9.20
2018-11-10T02:09:51.865Z,9.20
2018-11-10T02:12:21.311Z,9.20
2018-11-10T02:14:49.778Z,9.20
2018-11-10T02:17:18.569Z,9.20
2018-11-10T02:19:47.040Z,9.20
2018-11-10T02:22:15.632Z,9.20
2018-11-10T02:24:44.150Z,9.30
2018-11-10T02:27:17.982Z,9.30
2018-11-10T02:29:46.476Z,9.30
2018-11-10T02:32:14.990Z,9.30
2018-11-10T02:34:43.469Z,9.30
2018-11-10T02:37:12.085Z,9.20
2018-11-10T02:39:40.561Z,9.20
2018-11-10T02:42:09.106Z,9.30
2018-11-10T02:44:37.589Z,9.20
2018-11-10T02:47:06.073Z,9.20
2018-11-10T02:49:34.565Z,9.20
2018-11-10T02:52:03.052Z,9.30
2018-11-10T02:54:31.551Z,9.20
2018-11-10T02:57:00.026Z,9.20
2018-11-10T02:59:28.521Z,9.20
2018-11-10T03:01:56.986Z,9.20
2018-11-10T03:04:25.485Z,9.20
2018-11-10T03:06:53.954Z,9.10
2018-11-10T03:09:22.476Z,9.10
2018-11-10T03:11:50.957Z,9.10
2018-11-10T03:14:19.476Z,9.10
2018-11-10T03:16:47.960Z,9.10
2018-11-10T03:19:16.434Z,9.10
2018-11-10T03:21:44.944Z,9.20
2018-11-10T03:24:13.430Z,9.20
2018-11-10T03:26:41.929Z,9.20
2018-11-10T03:29:10.405Z,9.20
2018-11-10T03:31:38.909Z,9.20
2018-11-10T03:34:07.393Z,9.20
2018-11-10T03:36:35.932Z,9.20
2018-11-10T03:39:06.428Z,9.20
2018-11-10T03:41:34.930Z,9.20
2018-11-10T03:44:03.429Z,9.20
2018-11-10T03:46:31.945Z,9.10
2018-11-10T03:49:00.425Z,9.10
2018-11-10T03:51:28.932Z,9.10
2018-11-10T03:53:57.404Z,9.10
2018-11-10T03:56:25.927Z,9.10
2018-11-10T03:58:54.405Z,9.10
2018-11-10T04:01:22.908Z,9.10
2018-11-10T04:03:51.394Z,9.10
2018-11-10T04:06:19.873Z,9.10
2018-11-10T04:08:48.383Z,9.10
2018-11-10T04:11:16.873Z,9.10
2018-11-10T04:13:45.381Z,9.10
2018-11-10T04:16:13.866Z,9.10
2018-11-10T04:18:42.381Z,9.10
2018-11-10T04:21:10.861Z,9.10
2018-11-10T04:23:39.558Z,9.10
2018-11-10T04:26:08.061Z,9.10
2018-11-10T04:28:36.629Z,9.10
2018-11-10T04:31:05.581Z,9.20
2018-11-10T04:33:34.114Z,9.20
2018-11-10T04:36:02.585Z,9.20
2018-11-10T04:38:31.094Z,9.10
2018-11-10T04:40:59.604Z,9.10
2018-11-10T04:43:28.085Z,9.10
2018-11-10T04:45:56.602Z,9.10
2018-11-10T04:48:25.098Z,9.10
2018-11-10T04:50:53.600Z,9.00
2018-11-10T04:53:22.081Z,9.00
2018-11-10T04:55:50.603Z,9.00
2018-11-10T04:58:19.072Z,9.00
2018-11-10T05:00:47.596Z,9.10
2018-11-10T05:03:16.076Z,9.10
2018-11-10T05:05:44.549Z,9.10
2018-11-10T05:08:13.049Z,9.10
2018-11-10T05:10:41.534Z,9.00
2018-11-10T05:13:10.041Z,9.00
2018-11-10T05:15:38.525Z,8.90
2018-11-10T05:18:07.057Z,8.90
2018-11-10T05:20:35.529Z,8.90
2018-11-10T05:23:04.093Z,8.90
2018-11-10T05:25:32.560Z,8.90
2018-11-10T05:28:01.068Z,8.90
2018-11-10T05:30:29.545Z,8.80
2018-11-10T05:32:58.017Z,8.80
2018-11-10T05:35:26.549Z,8.80
2018-11-10T05:37:55.053Z,8.80
2018-11-10T05:40:23.552Z,8.80
2018-11-10T05:42:52.024Z,8.80
2018-11-10T05:45:20.533Z,8.70
2018-11-10T05:47:49.012Z,8.70
2018-11-10T05:50:17.528Z,8.70
2018-11-10T05:52:46.004Z,8.70
2018-11-10T05:55:14.517Z,8.70
2018-11-10T05:57:42.988Z,8.60
2018-11-10T06:00:12.991Z,8.70
2018-11-10T06:02:41.832Z,8.60
2018-11-10T06:05:10.864Z,8.70
2018-11-10T06:07:39.336Z,8.70
2018-11-10T06:10:09.274Z,8.70
2018-11-10T06:12:37.672Z,8.70
2018-11-10T06:15:07.041Z,8.80
2018-11-10T06:17:35.518Z,8.70
2018-11-10T06:20:05.456Z,8.70
2018-11-10T06:22:33.933Z,8.70
2018-11-10T06:25:02.442Z,8.70
2018-11-10T06:27:30.926Z,8.70
2018-11-10T06:29:59.441Z,8.70
2018-11-10T06:32:27.925Z,8.70
2018-11-10T06:34:56.449Z,8.70
2018-11-10T06:37:25.093Z,8.70
2018-11-10T06:39:53.621Z,8.80
2018-11-10T06:42:22.089Z,8.80
2018-11-10T06:44:50.596Z,8.80
2018-11-10T06:47:19.078Z,8.80
2018-11-10T06:49:47.590Z,8.80
2018-11-10T06:52:16.072Z,8.80
2018-11-10T06:54:44.580Z,8.70
2018-11-10T06:57:13.101Z,8.70
2018-11-10T06:59:41.673Z,8.70
2018-11-10T07:02:10.167Z,8.70
2018-11-10T07:04:38.685Z,8.70
2018-11-10T07:07:07.165Z,8.70
2018-11-10T07:09:35.655Z,8.60
2018-11-10T07:12:04.196Z,8.60
2018-11-10T07:14:32.668Z,8.50
2018-11-10T07:17:01.186Z,8.60
2018-11-10T07:19:29.681Z,8.60
2018-11-10T07:21:58.213Z,8.60
2018-11-10T07:24:26.689Z,8.60
2018-11-10T07:26:55.192Z,8.60
2018-11-10T07:29:23.665Z,8.70
2018-11-10T07:31:52.215Z,8.70
2018-11-10T07:34:20.673Z,8.80
2018-11-10T07:36:49.212Z,8.80
2018-11-10T07:39:17.700Z,8.80
2018-11-10T07:41:46.244Z,8.80
2018-11-10T07:44:14.717Z,8.70
2018-11-10T07:46:43.241Z,8.70
2018-11-10T07:49:11.727Z,8.70
2018-11-10T07:51:40.224Z,8.60
2018-11-10T07:54:08.738Z,8.60
2018-11-10T07:56:37.212Z,8.60
2018-11-10T07:59:06.445Z,8.60
2018-11-10T08:01:34.928Z,8.70
2018-11-10T08:04:03.476Z,8.70
2018-11-10T08:06:31.945Z,8.70
2018-11-10T08:09:00.481Z,8.80
2018-11-10T08:11:29.216Z,8.80
2018-11-10T08:13:57.736Z,8.90
2018-11-10T08:16:26.217Z,9.00
2018-11-10T08:18:54.697Z,9.00
2018-11-10T08:21:23.213Z,9.00
2018-11-10T08:23:51.697Z,9.00
2018-11-10T08:26:20.209Z,9.00
2018-11-10T08:28:48.681Z,9.10
2018-11-10T08:31:17.232Z,9.20
2018-11-10T08:33:45.688Z,9.30
2018-11-10T08:36:14.204Z,9.30
2018-11-10T08:38:42.717Z,9.40
2018-11-10T08:41:11.202Z,9.50
2018-11-10T08:43:39.723Z,9.50
2018-11-10T08:46:08.252Z,9.50
2018-11-10T08:48:36.773Z,9.60
2018-11-10T08:51:05.740Z,9.70
2018-11-10T08:53:34.562Z,9.80
2018-11-10T08:56:03.095Z,9.80
2018-11-10T08:58:31.581Z,9.80
2018-11-10T09:01:00.086Z,9.90
2018-11-10T09:03:28.603Z,10.00
2018-11-10T09:05:57.137Z,10.10
2018-11-10T09:08:25.629Z,10.10
2018-11-10T09:10:54.109Z,10.10
2018-11-10T09:13:22.622Z,10.10
2018-11-10T09:15:51.117Z,10.20
2018-11-10T09:18:19.645Z,10.20
2018-11-10T09:20:48.122Z,10.20
2018-11-10T09:23:16.629Z,10.30
2018-11-10T09:25:45.115Z,10.30
2018-11-10T09:28:13.657Z,10.40
2018-11-10T09:30:42.174Z,10.40
2018-11-10T09:33:10.701Z,10.40
2018-11-10T09:35:39.196Z,10.40
2018-11-10T09:38:07.741Z,10.30
2018-11-10T09:40:36.234Z,10.20
2018-11-10T09:43:04.929Z,10.20
2018-11-10T09:45:33.409Z,10.20
2018-11-10T09:48:01.929Z,10.10
2018-11-10T09:50:30.425Z,10.10
2018-11-10T09:52:58.944Z,10.10
2018-11-10T09:55:27.469Z,10.20
2018-11-10T09:57:55.990Z,10.30
2018-11-10T10:00:24.493Z,10.40
2018-11-10T10:02:53.083Z,10.30
2018-11-10T10:05:21.537Z,10.40
2018-11-10T10:07:50.053Z,10.40
2018-11-10T10:10:19.161Z,10.50
2018-11-10T10:12:47.864Z,10.60
2018-11-10T10:15:17.602Z,10.60
2018-11-10T10:17:46.516Z,10.70
2018-11-10T10:20:17.022Z,10.80
2018-11-10T10:22:46.362Z,10.80
2018-11-10T10:25:15.821Z,10.90
2018-11-10T10:27:45.233Z,10.90
2018-11-10T10:30:19.365Z,10.80
2018-11-10T10:32:48.573Z,10.70
2018-11-10T10:35:17.161Z,10.80
2018-11-10T10:37:46.863Z,10.80
2018-11-10T10:40:15.816Z,11.00
2018-11-10T10:42:45.116Z,11.10
2018-11-10T10:45:16.296Z,11.20
2018-11-10T10:47:45.010Z,11.40
2018-11-10T10:50:14.918Z,11.50
2018-11-10T10:52:43.429Z,12.20
2018-11-10T10:55:13.538Z,13.10
2018-11-10T10:57:42.860Z,13.60
2018-11-10T11:00:17.741Z,13.90
2018-11-10T11:02:51.749Z,14.20
2018-11-10T11:05:24.452Z,14.60
2018-11-10T11:07:53.182Z,15.00
2018-11-10T11:10:22.221Z,15.10
2018-11-10T11:12:50.961Z,15.20
2018-11-10T11:15:19.647Z,15.40
2018-11-10T11:17:48.056Z,15.60
2018-11-10T11:20:16.585Z,15.80
2018-11-10T11:22:45.090Z,15.70
2018-11-10T11:25:14.214Z,15.80
2018-11-10T11:27:42.734Z,15.60
2018-11-10T11:30:11.285Z,15.40
2018-11-10T11:32:39.778Z,15.20
2018-11-10T11:35:09.939Z,15.00
2018-11-10T11:37:38.840Z,15.00
2018-11-10T11:40:09.317Z,15.10
2018-11-10T11:42:38.073Z,15.10
2018-11-10T11:45:07.933Z,15.20
2018-11-10T11:47:36.453Z,15.00
2018-11-10T11:50:05.794Z,15.00
2018-11-10T11:52:34.297Z,14.90
2018-11-10T11:55:02.838Z,14.90
2018-11-10T11:57:31.350Z,14.80
2018-11-10T11:59:59.953Z,14.70
2018-11-10T12:02:28.448Z,14.70
2018-11-10T12:04:56.972Z,14.80
2018-11-10T12:07:25.453Z,14.90
2018-11-10T12:09:53.981Z,14.80
2018-11-10T12:12:22.501Z,14.80
2018-11-10T12:14:51.313Z,14.80
2018-11-10T12:17:20.213Z,14.80
2018-11-10T12:19:48.728Z,14.70
2018-11-10T12:22:17.233Z,14.80
2018-11-10T12:24:45.761Z,14.70
2018-11-10T12:27:14.268Z,14.70
2018-11-10T12:29:42.780Z,14.80
2018-11-10T12:32:11.270Z,14.80
2018-11-10T12:34:39.777Z,14.90
2018-11-10T12:37:08.309Z,14.70
2018-11-10T12:39:36.857Z,14.70
2018-11-10T12:42:05.949Z,14.50
2018-11-10T12:44:34.481Z,14.40
2018-11-10T12:47:02.994Z,14.20
2018-11-10T12:49:31.523Z,14.10
2018-11-10T12:52:00.060Z,14.10
2018-11-10T12:54:28.626Z,14.00
2018-11-10T12:56:57.130Z,14.00
2018-11-10T12:59:25.649Z,14.00
2018-11-10T13:01:54.152Z,14.00
2018-11-10T13:04:22.676Z,13.90
2018-11-10T13:06:51.174Z,13.90
2018-11-10T13:09:19.713Z,13.90
2018-11-10T13:11:48.283Z,14.00
2018-11-10T13:14:16.777Z,14.00
2018-11-10T13:16:45.297Z,13.90
2018-11-10T13:19:13.817Z,13.90
2018-11-10T13:21:42.328Z,13.80
2018-11-10T13:24:10.908Z,13.90
2018-11-10T13:26:39.377Z,13.90
2018-11-10T13:29:07.901Z,13.90
2018-11-10T13:31:36.487Z,13.90
2018-11-10T13:34:05.489Z,13.90
2018-11-10T13:36:34.640Z,13.90
2018-11-10T13:39:03.348Z,13.80
2018-11-10T13:41:31.869Z,13.80
2018-11-10T13:44:00.444Z,13.80
2018-11-10T13:46:28.877Z,13.80
2018-11-10T13:48:57.397Z,13.80
2018-11-10T13:51:26.055Z,13.80
2018-11-10T13:53:54.476Z,13.80
2018-11-10T13:56:23.001Z,13.80
2018-11-10T13:58:51.836Z,13.80
2018-11-10T14:01:20.321Z,13.80
2018-11-10T14:03:48.833Z,13.80
2018-11-10T14:06:17.333Z,13.80
2018-11-10T14:08:45.850Z,13.80
2018-11-10T14:11:14.346Z,13.70
2018-11-10T14:13:42.858Z,13.70
2018-11-10T14:16:11.365Z,13.60
2018-11-10T14:18:39.921Z,13.60
2018-11-10T14:21:08.409Z,13.50
2018-11-10T14:23:37.521Z,13.50
2018-11-10T14:26:06.070Z,13.30
2018-11-10T14:28:34.593Z,13.20
2018-11-10T14:31:03.117Z,13.20
2018-11-10T14:33:32.314Z,13.10
2018-11-10T14:36:01.028Z,13.00
2018-11-10T14:38:29.765Z,13.00
2018-11-10T14:40:58.297Z,13.00
2018-11-10T14:43:27.192Z,13.00
2018-11-10T14:45:56.091Z,12.90
2018-11-10T14:48:24.616Z,12.90
2018-11-10T14:50:53.205Z,12.90
2018-11-10T14:53:21.751Z,12.90
2018-11-10T14:55:50.323Z,12.80
2018-11-10T14:58:18.928Z,12.80
2018-11-10T15:00:47.480Z,12.70
2018-11-10T15:03:16.014Z,12.60
2018-11-10T15:05:44.637Z,12.60
2018-11-10T15:08:13.141Z,12.50
2018-11-10T15:10:41.741Z,12.50
2018-11-10T15:13:10.290Z,12.50
2018-11-10T15:15:38.861Z,12.40
2018-11-10T15:18:07.509Z,12.40
2018-11-10T15:20:36.029Z,12.30
2018-11-10T15:23:04.911Z,12.20
2018-11-10T15:25:33.479Z,12.20
2018-11-10T15:28:02.025Z,12.10
2018-11-10T15:30:30.598Z,12.00
2018-11-10T15:32:59.163Z,12.00
2018-11-10T15:35:27.738Z,12.00
2018-11-10T15:37:56.314Z,11.90
2018-11-10T15:40:24.865Z,11.90
2018-11-10T15:42:53.402Z,11.90
2018-11-10T15:45:22.174Z,11.90
2018-11-10T15:47:50.669Z,11.90
2018-11-10T15:50:19.618Z,11.90
2018-11-10T15:52:48.122Z,11.90
2018-11-10T15:55:16.669Z,11.90
2018-11-10T15:57:45.203Z,11.90
2018-11-10T16:00:18.026Z,11.90
2018-11-10T16:02:46.563Z,11.90
2018-11-10T16:05:15.797Z,11.80
2018-11-10T16:07:44.385Z,11.80
2018-11-10T16:10:13.119Z,11.90
2018-11-10T16:12:41.798Z,11.90
2018-11-10T16:15:12.446Z,11.80
2018-11-10T16:17:41.417Z,11.80
2018-11-10T16:20:12.882Z,11.70
2018-11-10T16:22:41.698Z,11.70
2018-11-10T16:25:10.798Z,11.70
2018-11-10T16:27:39.395Z,11.70
2018-11-10T16:30:09.777Z,11.60
2018-11-10T16:32:38.583Z,11.60
2018-11-10T16:35:07.801Z,11.60
2018-11-10T16:37:36.406Z,11.60
2018-11-10T16:40:07.345Z,11.60
2018-11-10T16:42:36.186Z,11.50
2018-11-10T16:45:05.278Z,11.50
2018-11-10T16:47:33.840Z,11.50
2018-11-10T16:50:02.570Z,11.50
2018-11-10T16:52:31.323Z,11.50
2018-11-10T16:55:00.086Z,11.50
2018-11-10T16:57:29.193Z,11.50
2018-11-10T16:59:58.118Z,11.40
2018-11-10T17:02:26.683Z,11.50
2018-11-10T17:04:55.279Z,11.50
2018-11-10T17:07:24.162Z,11.50
2018-11-10T17:09:52.738Z,11.40
2018-11-10T17:12:21.314Z,11.30
2018-11-10T17:14:49.892Z,11.30
2018-11-10T17:17:18.434Z,11.30
2018-11-10T17:19:47.018Z,11.30
2018-11-10T17:22:15.593Z,11.30
2018-11-10T17:24:44.187Z,11.40
2018-11-10T17:27:12.816Z,11.30
2018-11-10T17:29:41.347Z,11.30
2018-11-10T17:32:09.904Z,11.30
2018-11-10T17:34:38.458Z,11.30
2018-11-10T17:37:07.174Z,11.30
2018-11-10T17:39:35.921Z,11.30
2018-11-10T17:42:04.407Z,11.30
2018-11-10T17:44:32.978Z,11.30
2018-11-10T17:47:01.539Z,11.30
2018-11-10T17:49:30.129Z,11.30
2018-11-10T17:51:58.710Z,11.30
2018-11-10T17:54:27.302Z,11.30
2018-11-10T17:56:55.847Z,11.30
2018-11-10T17:59:24.574Z,11.20
2018-11-10T18:01:53.317Z,11.20
2018-11-10T18:04:21.698Z,11.20
2018-11-10T18:06:50.500Z,11.10
2018-11-10T18:09:19.085Z,11.10
2018-11-10T18:11:47.695Z,11.20
2018-11-10T18:14:16.236Z,11.10
2018-11-10T18:16:44.777Z,11.10
2018-11-10T18:19:14.042Z,11.00
2018-11-10T18:21:42.682Z,11.00
2018-11-10T18:24:11.278Z,11.00
2018-11-10T18:26:39.870Z,10.90
2018-11-10T18:29:08.722Z,10.90
2018-11-10T18:31:37.295Z,10.80
2018-11-10T18:34:06.137Z,10.90
2018-11-10T18:36:34.927Z,10.80
2018-11-10T18:39:05.076Z,10.80
2018-11-10T18:41:33.617Z,10.80
2018-11-10T18:44:02.212Z,10.80
2018-11-10T18:46:30.788Z,10.70
2018-11-10T18:48:59.360Z,10.60
2018-11-10T18:51:27.906Z,10.50
2018-11-10T18:53:56.490Z,10.50
2018-11-10T18:56:25.013Z,10.40
2018-11-10T18:58:53.583Z,10.40
2018-11-10T19:01:22.130Z,10.40
2018-11-10T19:03:50.653Z,10.40
2018-11-10T19:06:19.280Z,10.30
2018-11-10T19:08:47.853Z,10.30
2018-11-10T19:11:16.381Z,10.30
2018-11-10T19:13:44.917Z,10.30
2018-11-10T19:16:13.492Z,10.30
2018-11-10T19:18:42.141Z,10.40
2018-11-10T19:21:10.781Z,10.40
2018-11-10T19:23:39.302Z,10.30
2018-11-10T19:26:07.958Z,10.30
2018-11-10T19:28:36.547Z,10.30
2018-11-10T19:31:05.150Z,10.20
2018-11-10T19:33:33.689Z,10.10
2018-11-10T19:36:02.234Z,10.10
2018-11-10T19:38:30.825Z,10.00
2018-11-10T19:40:59.392Z,10.00
2018-11-10T19:43:27.908Z,10.10
2018-11-10T19:45:56.541Z,10.10
2018-11-10T19:48:25.090Z,10.00
2018-11-10T19:50:53.808Z,10.10
2018-11-10T19:53:22.225Z,10.10
2018-11-10T19:55:50.817Z,10.20
2018-11-10T19:58:19.358Z,10.20
2018-11-10T20:00:47.961Z,10.20
2018-11-10T20:03:16.536Z,10.20
2018-11-10T20:05:45.091Z,10.20
2018-11-10T20:08:13.609Z,10.20
2018-11-10T20:10:42.162Z,10.20
2018-11-10T20:13:10.718Z,10.20
2018-11-10T20:15:39.185Z,10.20
2018-11-10T20:18:07.717Z,10.20
2018-11-10T20:20:36.230Z,10.20
2018-11-10T20:23:05.025Z,10.20
2018-11-10T20:25:33.532Z,10.20
2018-11-10T20:28:02.063Z,10.20
2018-11-10T20:30:30.566Z,10.10
2018-11-10T20:32:59.198Z,10.10
2018-11-10T20:35:27.650Z,10.10
2018-11-10T20:37:56.212Z,10.10
2018-11-10T20:40:24.737Z,10.00
2018-11-10T20:42:53.247Z,10.00
2018-11-10T20:45:22.266Z,10.00
2018-11-10T20:47:50.816Z,10.00
2018-11-10T20:50:19.680Z,10.00
2018-11-10T20:52:48.189Z,10.00
2018-11-10T20:55:16.766Z,10.00
2018-11-10T20:57:45.282Z,10.00
2018-11-10T21:00:15.341Z,10.00
2018-11-10T21:02:44.406Z,10.00
2018-11-10T21:05:13.875Z,10.00
2018-11-10T21:07:42.396Z,10.00
2018-11-10T21:10:13.271Z,10.00
2018-11-10T21:12:42.354Z,10.00
2018-11-10T21:15:11.473Z,10.10
2018-11-10T21:17:39.964Z,10.00
2018-11-10T21:20:09.762Z,10.10
2018-11-10T21:22:38.219Z,10.10
2018-11-10T21:25:08.185Z,10.10
2018-11-10T21:27:36.989Z,10.10
2018-11-10T21:30:07.119Z,10.10
2018-11-10T21:32:35.581Z,10.10
2018-11-10T21:35:04.404Z,10.00
2018-11-10T21:37:32.940Z,10.00
2018-11-10T21:40:01.474Z,10.00
2018-11-10T21:42:29.973Z,10.00
2018-11-10T21:44:58.459Z,9.90
2018-11-10T21:47:26.977Z,9.90
2018-11-10T21:49:55.535Z,9.80
2018-11-10T21:52:23.993Z,9.80
2018-11-10T21:54:52.456Z,9.80
2018-11-10T21:57:20.977Z,9.80
2018-11-10T21:59:49.460Z,9.70
2018-11-10T22:02:17.986Z,9.70
2018-11-10T22:04:46.484Z,9.70
2018-11-10T22:07:14.990Z,9.70
2018-11-10T22:09:43.526Z,9.70
2018-11-10T22:12:12.005Z,9.80
2018-11-10T22:14:40.485Z,9.80
2018-11-10T22:17:08.993Z,9.80
2018-11-10T22:19:37.477Z,9.80
2018-11-10T22:22:06.040Z,9.80
2018-11-10T22:24:34.521Z,9.80
2018-11-10T22:27:03.029Z,9.80
2018-11-10T22:29:31.517Z,9.80
2018-11-10T22:32:00.039Z,9.80
2018-11-10T22:34:28.529Z,9.80
2018-11-10T22:36:57.072Z,9.80
2018-11-10T22:39:25.549Z,9.80
2018-11-10T22:41:54.061Z,9.80
2018-11-10T22:44:22.545Z,9.80
2018-11-10T22:46:51.055Z,9.80
2018-11-10T22:49:19.548Z,9.80
2018-11-10T22:51:48.061Z,9.80
2018-11-10T22:54:16.548Z,9.80
2018-11-10T22:56:45.095Z,9.70
2018-11-10T22:59:13.590Z,9.70
2018-11-10T23:01:42.093Z,9.70
2018-11-10T23:04:10.569Z,9.70
2018-11-10T23:06:39.076Z,9.60
2018-11-10T23:09:08.920Z,9.60
2018-11-10T23:11:37.449Z,9.60
2018-11-10T23:14:06.021Z,9.50
2018-11-10T23:16:34.533Z,9.60
2018-11-10T23:19:03.031Z,9.60
2018-11-10T23:21:31.541Z,9.50
2018-11-10T23:24:00.070Z,9.50
2018-11-10T23:26:28.559Z,9.50
2018-11-10T23:28:57.043Z,9.50
2018-11-10T23:31:25.597Z,9.40
2018-11-10T23:33:54.073Z,9.40
2018-11-10T23:36:22.577Z,9.40
2018-11-10T23:38:51.090Z,9.40
2018-11-10T23:41:19.600Z,9.40
2018-11-10T23:43:48.081Z,9.40
2018-11-10T23:46:16.596Z,9.50
2018-11-10T23:48:45.084Z,9.40
2018-11-10T23:51:13.596Z,9.40
2018-11-10T23:53:42.078Z,9.40
2018-11-10T23:56:10.606Z,9.40
2018-11-10T23:58:39.081Z,9.40
